createdAt,value
2022-09-07T00:02:11.672Z,7.33
2022-09-07T00:04:38.453Z,6.60
2022-09-07T00:07:05.224Z,9.53
2022-09-07T00:09:31.976Z,7.10
2022-09-07T00:12:00.072Z,8.23
2022-09-07T00:14:26.830Z,7.80
2022-09-07T00:16:53.622Z,7.50
2022-09-07T00:19:20.351Z,7.40
2022-09-07T00:21:47.073Z,8.43
2022-09-07T00:24:13.827Z,7.20
2022-09-07T00:26:40.631Z,7.90
2022-09-07T00:29:08.639Z,6.97
2022-09-07T00:31:35.656Z,7.50
2022-09-07T00:34:02.538Z,7.67
2022-09-07T00:36:29.768Z,7.77
2022-09-07T00:38:56.628Z,7.30
2022-09-07T00:41:23.469Z,7.10
2022-09-07T00:43:52.188Z,8.27
2022-09-07T00:46:21.894Z,7.30
2022-09-07T00:48:53.032Z,8.03
2022-09-07T00:51:24.680Z,8.50
2022-09-07T00:53:55.804Z,8.40
2022-09-07T00:56:24.689Z,7.57
2022-09-07T00:58:52.208Z,6.60
2022-09-07T01:01:21.118Z,7.60
2022-09-07T01:03:50.807Z,6.40
2022-09-07T01:06:19.878Z,8.23
2022-09-07T01:08:49.457Z,8.33
2022-09-07T01:11:18.329Z,6.87
2022-09-07T01:13:46.521Z,7.60
2022-09-07T01:16:24.296Z,7.30
2022-09-07T01:19:00.956Z,6.70
2022-09-07T01:21:37.704Z,6.50
2022-09-07T01:24:28.436Z,7.40
2022-09-07T01:27:31.561Z,7.43
2022-09-07T01:30:04.341Z,7.20
2022-09-07T01:32:49.353Z,7.10
2022-09-07T01:35:22.420Z,6.60
2022-09-07T01:37:57.140Z,7.10
2022-09-07T01:40:33.456Z,7.30
2022-09-07T01:43:04.399Z,6.80
2022-09-07T01:45:36.300Z,6.37
2022-09-07T01:48:05.857Z,6.63
2022-09-07T01:50:38.562Z,7.00
2022-09-07T01:53:11.067Z,6.70
2022-09-07T01:55:43.110Z,6.93
2022-09-07T01:58:15.168Z,6.10
2022-09-07T02:00:48.298Z,7.13
2022-09-07T02:03:19.757Z,6.70
2022-09-07T02:05:51.521Z,6.87
2022-09-07T02:08:22.955Z,6.73
2022-09-07T02:10:53.461Z,7.80
2022-09-07T02:13:23.400Z,6.40
2022-09-07T02:15:55.040Z,7.23
2022-09-07T02:18:23.374Z,6.80
2022-09-07T02:20:54.410Z,8.20
2022-09-07T02:23:25.111Z,7.80
2022-09-07T02:25:58.895Z,6.50
2022-09-07T02:28:29.289Z,7.37
2022-09-07T02:30:57.515Z,6.60
2022-09-07T02:33:24.461Z,6.70
2022-09-07T02:35:52.111Z,5.97
2022-09-07T02:38:19.256Z,7.40
2022-09-07T02:40:50.592Z,7.10
2022-09-07T02:43:17.378Z,6.37
2022-09-07T02:45:54.509Z,8.20
2022-09-07T02:48:31.322Z,6.47
2022-09-07T02:51:06.370Z,7.10
2022-09-07T02:54:03.761Z,6.40
2022-09-07T02:56:45.571Z,7.73
2022-09-07T02:59:23.858Z,7.33
2022-09-07T03:01:56.891Z,6.30
2022-09-07T03:04:37.351Z,5.97
2022-09-07T03:07:08.949Z,6.80
2022-09-07T03:09:39.446Z,7.27
2022-09-07T03:12:07.066Z,7.00
2022-09-07T03:14:34.308Z,6.83
2022-09-07T03:17:02.063Z,7.10
2022-09-07T03:19:30.156Z,8.37
2022-09-07T03:21:56.873Z,7.50
2022-09-07T03:24:23.603Z,6.30
2022-09-07T03:26:50.415Z,7.07
2022-09-07T03:29:17.779Z,6.83
2022-09-07T03:31:44.779Z,8.13
2022-09-07T03:34:11.774Z,7.00
2022-09-07T03:36:40.210Z,6.10
2022-09-07T03:39:06.927Z,6.70
2022-09-07T03:41:34.223Z,7.00
2022-09-07T03:44:03.381Z,5.60
2022-09-07T03:46:30.115Z,5.70
2022-09-07T03:48:56.964Z,6.70
2022-09-07T03:51:23.710Z,6.47
2022-09-07T03:53:51.907Z,6.87
2022-09-07T03:56:21.065Z,6.60
2022-09-07T03:58:49.289Z,6.87
2022-09-07T04:01:17.859Z,6.83
2022-09-07T04:03:45.902Z,6.77
2022-09-07T04:06:13.095Z,6.40
2022-09-07T04:08:40.950Z,6.83
2022-09-07T04:11:11.652Z,7.23
2022-09-07T04:13:38.532Z,6.20
2022-09-07T04:16:13.795Z,6.13
2022-09-07T04:18:40.808Z,5.53
2022-09-07T04:21:07.673Z,6.73
2022-09-07T04:23:34.540Z,7.03
2022-09-07T04:26:01.245Z,7.00
2022-09-07T04:28:29.423Z,5.97
2022-09-07T04:30:59.506Z,6.27
2022-09-07T04:33:26.287Z,7.40
2022-09-07T04:35:53.058Z,6.70
2022-09-07T04:38:19.870Z,6.67
2022-09-07T04:40:46.575Z,6.47
2022-09-07T04:43:13.394Z,7.60
2022-09-07T04:45:41.433Z,6.20
2022-09-07T04:48:08.284Z,6.57
2022-09-07T04:50:35.120Z,6.37
2022-09-07T04:53:01.893Z,7.60
2022-09-07T04:55:28.671Z,6.33
2022-09-07T04:57:55.426Z,7.07
2022-09-07T05:00:22.374Z,6.90
2022-09-07T05:02:50.467Z,6.80
2022-09-07T05:05:17.312Z,6.93
2022-09-07T05:07:44.265Z,7.13
2022-09-07T05:10:11.010Z,6.50
2022-09-07T05:12:37.910Z,6.13
2022-09-07T05:15:05.735Z,6.73
2022-09-07T05:17:32.421Z,7.57
2022-09-07T05:20:00.554Z,6.60
2022-09-07T05:22:27.312Z,7.13
2022-09-07T05:24:54.080Z,6.60
2022-09-07T05:27:20.931Z,7.70
2022-09-07T05:30:03.959Z,6.13
2022-09-07T05:32:31.826Z,7.23
2022-09-07T05:35:00.056Z,7.70
2022-09-07T05:37:26.833Z,6.60
2022-09-07T05:39:53.613Z,7.83
2022-09-07T05:42:20.382Z,5.83
2022-09-07T05:44:47.217Z,7.00
2022-09-07T05:47:14.422Z,7.40
2022-09-07T05:49:41.154Z,7.27
2022-09-07T05:52:09.178Z,7.23
2022-09-07T05:54:35.907Z,7.37
2022-09-07T05:57:02.683Z,8.00
2022-09-07T05:59:29.397Z,8.03
2022-09-07T06:01:56.198Z,7.90
2022-09-07T06:04:23.011Z,6.80
2022-09-07T06:07:11.046Z,8.33
2022-09-07T06:12:25.035Z,8.93
2022-09-07T06:14:51.763Z,6.40
2022-09-07T06:17:18.556Z,8.50
2022-09-07T06:19:45.312Z,10.27
2022-09-07T06:22:12.100Z,8.50
2022-09-07T06:24:40.151Z,8.00
2022-09-07T06:27:06.862Z,11.13
2022-09-07T06:29:33.637Z,9.13
2022-09-07T06:34:47.060Z,10.10
2022-09-07T06:37:13.755Z,11.17
2022-09-07T06:39:41.881Z,10.17
2022-09-07T06:42:08.676Z,9.87
2022-09-07T06:44:35.371Z,10.80
2022-09-07T06:49:33.779Z,11.10
2022-09-07T06:52:00.517Z,8.93
2022-09-07T06:57:15.308Z,11.83
2022-09-07T06:59:42.012Z,11.53
2022-09-07T07:02:11.513Z,10.40
2022-09-07T07:04:41.004Z,9.60
2022-09-07T07:07:10.558Z,7.90
2022-09-07T07:09:37.470Z,8.90
2022-09-07T07:12:04.441Z,10.07
2022-09-07T07:14:34.622Z,10.80
2022-09-07T07:17:02.294Z,11.67
2022-09-07T07:19:29.101Z,13.60
2022-09-07T07:22:29.669Z,10.30
2022-09-07T07:24:42.491Z,12.97
2022-09-07T07:27:09.231Z,12.93
2022-09-07T07:29:37.310Z,13.47
2022-09-07T07:32:04.094Z,13.30
2022-09-07T07:34:30.970Z,13.43
2022-09-07T07:36:57.739Z,13.67
2022-09-07T07:42:11.245Z,13.10
2022-09-07T07:44:39.343Z,13.30
2022-09-07T07:47:06.618Z,14.30
2022-09-07T07:49:33.463Z,13.93
2022-09-07T07:54:47.209Z,13.60
2022-09-07T07:57:14.284Z,13.70
2022-09-07T07:59:42.290Z,13.20
2022-09-07T08:02:14.345Z,12.57
2022-09-07T08:04:41.143Z,11.70
2022-09-07T08:07:11.185Z,12.27
2022-09-07T08:09:39.593Z,12.37
2022-09-07T08:12:06.466Z,11.30
2022-09-07T08:14:33.207Z,10.13
2022-09-07T08:17:01.282Z,12.07
2022-09-07T08:19:28.035Z,11.73
2022-09-07T08:21:54.679Z,11.43
2022-09-07T08:24:21.413Z,10.60
2022-09-07T08:26:48.099Z,10.50
2022-09-07T08:29:15.175Z,10.93
2022-09-07T08:31:41.926Z,12.20
2022-09-07T08:34:09.982Z,12.00
2022-09-07T08:36:36.681Z,14.03
2022-09-07T08:39:03.565Z,11.93
2022-09-07T08:42:04.760Z,11.70
2022-09-07T08:44:34.740Z,11.10
2022-09-07T08:47:09.769Z,9.83
2022-09-07T08:49:45.074Z,12.63
2022-09-07T08:52:15.540Z,10.10
2022-09-07T08:54:46.979Z,10.43
2022-09-07T08:57:20.851Z,9.97
2022-09-07T08:59:53.359Z,10.00
2022-09-07T09:02:28.240Z,9.40
2022-09-07T09:07:57.350Z,10.30
2022-09-07T09:10:33.982Z,12.27
2022-09-07T09:13:05.976Z,11.87
2022-09-07T09:15:53.258Z,11.10
2022-09-07T09:18:33.863Z,10.57
2022-09-07T09:21:02.093Z,9.67
2022-09-07T09:23:34.281Z,12.10
2022-09-07T09:26:07.131Z,10.03
2022-09-07T09:28:34.068Z,11.17
2022-09-07T09:31:00.946Z,9.70
2022-09-07T09:33:29.021Z,10.27
2022-09-07T09:35:59.630Z,10.60
2022-09-07T09:38:35.849Z,12.87
2022-09-07T09:41:07.295Z,10.73
2022-09-07T09:43:38.981Z,10.73
2022-09-07T09:46:22.455Z,10.80
2022-09-07T09:48:59.189Z,10.50
2022-09-07T09:54:24.551Z,11.50
2022-09-07T09:56:52.419Z,10.90
2022-09-07T10:05:25.794Z,10.00
2022-09-07T10:07:53.119Z,9.27
2022-09-07T10:10:21.325Z,9.20
2022-09-07T10:12:52.159Z,9.97
2022-09-07T10:15:27.202Z,9.30
2022-09-07T10:17:53.998Z,10.20
2022-09-07T10:20:31.094Z,9.30
2022-09-07T10:22:59.317Z,8.20
2022-09-07T10:25:33.428Z,9.30
2022-09-07T10:28:17.240Z,8.53
2022-09-07T10:31:01.393Z,9.10
2022-09-07T10:33:41.641Z,9.60
2022-09-07T10:36:15.585Z,10.03
2022-09-07T10:38:51.396Z,9.97
2022-09-07T10:41:29.327Z,9.53
2022-09-07T10:43:57.243Z,10.87
2022-09-07T10:46:57.954Z,8.43
2022-09-07T10:49:30.963Z,9.73
2022-09-07T10:52:06.324Z,11.17
2022-09-07T10:54:43.845Z,9.10
2022-09-07T10:57:28.903Z,8.57
2022-09-07T11:00:10.939Z,9.57
2022-09-07T11:06:01.533Z,8.70
2022-09-07T11:14:21.466Z,9.30
2022-09-07T11:16:55.543Z,9.17
2022-09-07T11:19:35.384Z,8.60
2022-09-07T11:22:15.293Z,9.33
2022-09-07T11:24:48.170Z,9.03
2022-09-07T11:27:40.693Z,9.30
2022-09-07T11:30:18.020Z,9.17
2022-09-07T11:32:51.322Z,9.57
2022-09-07T11:35:29.458Z,9.83
2022-09-07T11:38:00.457Z,9.30
2022-09-07T11:40:30.768Z,10.17
2022-09-07T11:43:03.513Z,10.60
2022-09-07T11:45:39.551Z,9.87
2022-09-07T11:48:14.303Z,9.23
2022-09-07T11:50:50.286Z,9.30
2022-09-07T11:53:20.482Z,9.37
2022-09-07T11:55:50.543Z,10.90
2022-09-07T11:58:39.382Z,9.93
2022-09-07T12:01:20.574Z,9.70
2022-09-07T12:04:15.566Z,9.90
2022-09-07T12:07:04.800Z,9.00
2022-09-07T12:09:45.504Z,9.40
2022-09-07T12:12:49.153Z,10.37
2022-09-07T12:15:26.549Z,11.70
2022-09-07T12:18:06.523Z,9.40
2022-09-07T12:20:39.974Z,9.70
2022-09-07T12:23:20.204Z,9.90
2022-09-07T12:25:48.613Z,9.90
2022-09-07T12:28:19.949Z,10.13
2022-09-07T12:30:58.060Z,9.60
2022-09-07T12:33:31.920Z,8.80
2022-09-07T12:35:59.371Z,10.57
2022-09-07T12:39:02.371Z,9.17
2022-09-07T12:41:47.440Z,10.97
2022-09-07T12:44:19.822Z,10.33
2022-09-07T12:46:56.526Z,9.70
2022-09-07T12:49:50.977Z,10.57
2022-09-07T12:52:45.339Z,9.07
2022-09-07T12:55:28.457Z,9.30
2022-09-07T12:58:06.396Z,11.53
2022-09-07T13:00:46.187Z,8.67
2022-09-07T13:03:49.814Z,10.27
2022-09-07T13:09:34.042Z,8.90
2022-09-07T13:12:03.252Z,8.43
2022-09-07T13:14:34.487Z,8.53
2022-09-07T13:17:38.804Z,8.43
2022-09-07T13:20:22.487Z,8.53
2022-09-07T13:23:07.355Z,8.83
2022-09-07T13:25:46.599Z,8.40
2022-09-07T13:28:37.308Z,8.90
2022-09-07T13:31:23.630Z,8.93
2022-09-07T13:33:51.509Z,9.57
2022-09-07T13:36:21.779Z,8.67
2022-09-07T13:38:51.454Z,8.67
2022-09-07T13:41:22.003Z,9.70
2022-09-07T13:43:51.042Z,9.40
2022-09-07T13:46:46.293Z,9.40
2022-09-07T13:49:32.499Z,8.67
2022-09-07T13:52:04.989Z,8.73
2022-09-07T13:54:48.017Z,9.90
2022-09-07T13:57:22.182Z,9.60
2022-09-07T13:59:51.699Z,9.50
2022-09-07T14:02:23.038Z,8.60
2022-09-07T14:04:51.799Z,9.17
2022-09-07T14:07:21.307Z,8.80
2022-09-07T14:09:49.523Z,7.97
2022-09-07T14:12:18.426Z,9.03
2022-09-07T14:14:45.186Z,8.17
2022-09-07T14:17:15.216Z,8.93
2022-09-07T14:19:43.951Z,8.47
2022-09-07T14:22:14.520Z,8.10
2022-09-07T14:24:47.370Z,8.10
2022-09-07T14:27:22.447Z,8.20
2022-09-07T14:29:49.415Z,7.70
2022-09-07T14:32:20.530Z,7.53
2022-09-07T14:34:47.721Z,8.23
2022-09-07T14:37:16.916Z,7.70
2022-09-07T14:39:46.777Z,7.17
2022-09-07T14:42:17.179Z,7.07
2022-09-07T14:44:45.327Z,7.70
2022-09-07T14:47:23.787Z,7.57
2022-09-07T14:49:50.952Z,7.90
2022-09-07T14:52:21.879Z,8.27
2022-09-07T14:54:51.523Z,8.50
2022-09-07T14:57:29.326Z,7.60
2022-09-07T14:59:58.013Z,8.40
2022-09-07T15:02:42.488Z,6.20
2022-09-07T15:05:27.090Z,6.67
2022-09-07T15:07:55.982Z,7.50
2022-09-07T15:10:30.105Z,6.97
2022-09-07T15:12:58.670Z,7.03
2022-09-07T15:15:30.566Z,7.97
2022-09-07T15:18:05.791Z,7.43
2022-09-07T15:20:37.403Z,6.40
2022-09-07T15:23:06.017Z,7.17
2022-09-07T15:25:34.257Z,7.00
2022-09-07T15:28:01.132Z,8.37
2022-09-07T15:30:29.282Z,7.57
2022-09-07T15:32:57.384Z,7.00
2022-09-07T15:35:24.838Z,7.30
2022-09-07T15:38:59.342Z,7.67
2022-09-07T15:41:03.694Z,7.70
2022-09-07T15:43:29.267Z,7.20
2022-09-07T15:45:57.453Z,8.10
2022-09-07T15:48:25.231Z,8.10
2022-09-07T15:51:01.439Z,8.83
2022-09-07T15:56:15.780Z,8.77
2022-09-07T15:58:43.007Z,9.30
2022-09-07T16:03:59.160Z,8.60
2022-09-07T16:06:26.647Z,9.20
2022-09-07T16:08:54.542Z,8.70
2022-09-07T16:11:23.982Z,9.20
2022-09-07T16:13:55.186Z,8.77
2022-09-07T16:26:48.572Z,9.10
2022-09-07T16:29:15.287Z,8.10
2022-09-07T16:32:44.102Z,9.30
2022-09-07T16:34:28.735Z,8.70
2022-09-07T16:36:55.793Z,9.67
2022-09-07T16:39:22.492Z,10.50
2022-09-07T16:41:50.669Z,10.70
2022-09-07T16:44:17.559Z,8.97
2022-09-07T16:46:44.289Z,9.20
2022-09-07T16:49:11.676Z,9.90
2022-09-07T16:51:39.692Z,8.45
2022-09-07T16:54:06.719Z,8.73
2022-09-07T16:56:38.765Z,9.10
2022-09-07T16:59:07.722Z,9.97
2022-09-07T17:01:36.576Z,8.80
2022-09-07T17:04:09.618Z,8.30
2022-09-07T17:06:37.593Z,9.30
2022-09-07T17:09:04.973Z,8.87
2022-09-07T17:11:33.531Z,9.77
2022-09-07T17:14:00.708Z,8.80
2022-09-07T17:16:30.138Z,10.20
2022-09-07T17:21:46.187Z,10.50
2022-09-07T17:24:13.153Z,9.43
2022-09-07T17:26:42.299Z,9.53
2022-09-07T17:29:10.448Z,9.50
2022-09-07T17:34:25.638Z,10.10
2022-09-07T17:36:52.381Z,9.23
2022-09-07T17:39:19.695Z,8.70
2022-09-07T17:41:47.222Z,9.60
2022-09-07T17:44:14.163Z,9.50
2022-09-07T17:46:43.365Z,9.50
2022-09-07T17:49:11.197Z,8.97
2022-09-07T17:51:38.180Z,10.70
2022-09-07T17:54:10.738Z,9.97
2022-09-07T17:56:38.315Z,9.50
2022-09-07T18:01:53.113Z,10.53
2022-09-07T18:04:20.368Z,10.00
2022-09-07T18:06:47.094Z,9.80
2022-09-07T18:09:13.855Z,10.30
2022-09-07T18:11:49.363Z,11.63
2022-09-07T18:14:16.884Z,10.00
2022-09-07T18:16:45.214Z,10.27
2022-09-07T18:19:13.924Z,11.33
2022-09-07T18:21:42.673Z,11.80
2022-09-07T18:24:14.030Z,10.07
2022-09-07T18:26:41.167Z,9.00
2022-09-07T18:29:19.229Z,9.60
2022-09-07T18:31:54.594Z,10.87
2022-09-07T18:34:22.699Z,10.87
2022-09-07T18:36:49.640Z,10.90
2022-09-07T18:39:16.478Z,10.17
2022-09-07T18:41:43.149Z,10.73
2022-09-07T18:46:56.539Z,9.47
2022-09-07T18:49:24.975Z,11.17
2022-09-07T18:54:38.928Z,10.90
2022-09-07T18:57:06.913Z,10.70
2022-09-07T18:59:34.325Z,9.70
2022-09-07T19:02:04.352Z,10.87
2022-09-07T19:07:20.641Z,10.07
2022-09-07T19:09:47.555Z,10.00
2022-09-07T19:12:14.256Z,11.80
2022-09-07T19:14:41.006Z,10.93
2022-09-07T19:17:07.749Z,11.93
2022-09-07T19:19:35.742Z,10.50
2022-09-07T19:22:02.511Z,11.87
2022-09-07T19:24:29.900Z,10.40
2022-09-07T19:27:00.197Z,10.07
2022-09-07T19:29:27.647Z,10.23
2022-09-07T19:31:54.627Z,10.43
2022-09-07T19:34:21.317Z,10.20
2022-09-07T19:36:49.311Z,11.00
2022-09-07T19:39:16.077Z,10.60
2022-09-07T19:41:42.789Z,10.53
2022-09-07T19:44:09.589Z,10.63
2022-09-07T19:46:36.289Z,10.77
2022-09-07T19:49:03.043Z,11.20
2022-09-07T19:51:33.647Z,10.40
2022-09-07T19:54:04.679Z,10.47
2022-09-07T19:56:31.401Z,9.37
2022-09-07T19:58:58.443Z,13.87
2022-09-07T20:01:25.514Z,11.77
2022-09-07T20:03:57.120Z,12.70
2022-09-07T20:06:24.097Z,11.90
2022-09-07T20:08:50.858Z,11.23
2022-09-07T20:11:18.912Z,9.67
2022-09-07T20:13:45.791Z,9.50
2022-09-07T20:16:14.344Z,9.00
2022-09-07T20:18:41.399Z,9.00
2022-09-07T20:21:09.346Z,8.10
2022-09-07T20:23:36.342Z,8.67
2022-09-07T20:26:05.249Z,10.10
2022-09-07T20:28:33.861Z,8.30
2022-09-07T20:31:03.965Z,8.80
2022-09-07T20:33:33.108Z,9.27
2022-09-07T20:36:02.683Z,9.13
2022-09-07T20:38:29.403Z,8.40
2022-09-07T20:40:58.235Z,9.10
2022-09-07T20:43:26.337Z,10.30
2022-09-07T20:45:57.920Z,10.63
2022-09-07T20:48:25.043Z,11.23
2022-09-07T20:50:55.635Z,11.30
2022-09-07T20:53:22.521Z,13.80
2022-09-07T20:55:57.162Z,10.60
2022-09-07T20:58:23.794Z,11.53
2022-09-07T21:00:50.657Z,9.77
2022-09-07T21:03:18.971Z,10.90
2022-09-07T21:05:45.616Z,10.63
2022-09-07T21:08:12.314Z,10.13
2022-09-07T21:10:39.658Z,13.20
2022-09-07T21:13:06.483Z,12.67
2022-09-07T21:15:36.999Z,12.80
2022-09-07T21:18:03.806Z,13.27
2022-09-07T21:20:32.225Z,12.90
2022-09-07T21:22:58.915Z,12.50
2022-09-07T21:25:25.893Z,9.57
2022-09-07T21:27:52.619Z,10.70
2022-09-07T21:30:19.331Z,11.47
2022-09-07T21:32:49.955Z,11.80
2022-09-07T21:35:16.832Z,12.17
2022-09-07T21:37:44.891Z,10.57
2022-09-07T21:40:12.072Z,9.80
2022-09-07T21:42:38.803Z,10.70
2022-09-07T21:45:05.958Z,9.70
2022-09-07T21:47:33.148Z,8.60
2022-09-07T21:49:59.906Z,9.00
2022-09-07T21:52:26.627Z,11.27
2022-09-07T21:54:54.665Z,13.07
2022-09-07T21:57:21.326Z,13.00
2022-09-07T21:59:48.049Z,11.53
2022-09-07T22:02:14.952Z,12.90
2022-09-07T22:04:41.663Z,11.37
2022-09-07T22:07:08.325Z,8.60
2022-09-07T22:09:35.019Z,10.50
2022-09-07T22:12:03.715Z,10.37
2022-09-07T22:14:30.573Z,12.20
2022-09-07T22:16:57.333Z,11.53
2022-09-07T22:19:24.053Z,10.57
2022-09-07T22:21:50.759Z,8.50
2022-09-07T22:24:17.418Z,12.10
2022-09-07T22:26:44.274Z,13.30
2022-09-07T22:29:13.074Z,11.00
2022-09-07T22:31:41.333Z,11.60
2022-09-07T22:34:08.605Z,10.87
2022-09-07T22:36:37.113Z,12.13
2022-09-07T22:39:06.229Z,12.70
2022-09-07T22:41:35.127Z,14.77
2022-09-07T22:44:02.413Z,9.87
2022-09-07T22:46:34.111Z,14.27
2022-09-07T22:49:00.904Z,12.97
2022-09-07T22:51:28.053Z,10.67
2022-09-07T22:53:55.210Z,13.10
2022-09-07T22:56:23.948Z,12.60
2022-09-07T22:58:52.907Z,12.90
2022-09-07T23:01:20.256Z,9.60
2022-09-07T23:03:49.018Z,12.20
2022-09-07T23:06:21.003Z,10.83
2022-09-07T23:08:47.694Z,10.60
2022-09-07T23:11:14.451Z,9.40
2022-09-07T23:13:41.203Z,10.40
2022-09-07T23:16:08.510Z,10.40
2022-09-07T23:18:35.391Z,10.73
2022-09-07T23:21:03.600Z,10.87
2022-09-07T23:23:30.703Z,12.80
2022-09-07T23:26:01.005Z,13.60
2022-09-07T23:28:27.691Z,12.20
2022-09-07T23:30:54.460Z,10.97
2022-09-07T23:33:21.173Z,9.83
2022-09-07T23:35:56.064Z,10.57
2022-09-07T23:38:24.314Z,10.90
2022-09-07T23:40:51.115Z,10.67
2022-09-07T23:43:17.975Z,13.40
2022-09-07T23:45:44.665Z,11.10
2022-09-07T23:48:11.389Z,11.13
2022-09-07T23:50:38.111Z,11.70
2022-09-07T23:53:04.784Z,10.70
2022-09-07T23:55:32.783Z,9.90
2022-09-07T23:57:59.529Z,9.80
